Fredericksburg, TX

11:23 AM CDT on September 05, 2015 (GMT -0500)
Stehling Hill US 87 North | | Change Station
CLOSE
Current Station
Personal Weather Station
Location: Fredericksburg, TX
Elevation: 1957 ft
Nearby Weather Stations

Elev 1957 ft 30.33 °N, 98.92 °W | Updated 1 second ago

Mostly Cloudy
Mostly Cloudy
85.6 °F
Feels Like 91 °F
N
7.0
Wind Variable Wind from South
Gusts 7.0 mph

Today
High -- | Low -- °F
--% Chance of Precip.
Yesterday
High -- | Low -- °F
Precip. -- in
7:14 AM 7:53 PM
Waning Gibbous, 47% visible
Pressure 30.06 in
Visibility 10.0 miles
Clouds Mostly Cloudy 3300 ft
Overcast 4500 ft
Heat Index 91 °F
Dew Point 71 °F
Humidity 62%
Rainfall 0.00 in
Snow Depth Not available.
UV 2 out of 12
Pollen 9.80 out of 12
Air Quality Not available.
Flu Activity Not available.
METAR KT82 051555Z AUTO 21010KT 10SM BKN033 OVC045 29/19 A3006 RMK AO2 T02920193
Pressure 30.06 in
Visibility 10.0 miles
Clouds Mostly Cloudy 3300 ft
Overcast 4500 ft
Heat Index 91 °F
Dew Point 71 °F
Humidity 62%
Rainfall 0.00 in
Snow Depth Not available.
UV 2 out of 12
Pollen 9.80 out of 12
Air Quality Not available.
Flu Activity Not available.
METAR KT82 051555Z AUTO 21010KT 10SM BKN033 OVC045 29/19 A3006 RMK AO2 T02920193

10-Day Weather Forecast

×

Almanac

Astronomy

Sep. 05, 2015 Rise Set
Actual Time
Civil Twilight
Nautical Twilight
Astronomical Twilight
Moon
Length of Visible Light
Length of Day
Tomorrow will be .
, % of the Moon is Illuminated

Today's Extremes

State Highs State Lows

Community

WunderPhotos

Upload Photos

1,852,495 photos uploaded!

WunderBlogs® & News

Nearby

Air Quality

  Air Quality AQ Index Pollutant
Not available.

Snow Depth

Station Depth Elevation

Earthquake Activity

City Distance Mag. Time & Date
Minimum magnitude displayed is 2.5.

Coastal Water Temperatures

Place Temperature

Stations

Nearby Weather Stations

Station Location Temp. Windchill Dew Point Humidity Wind Precip. Elev Updated Type